sensor_id;sensor_type;location;lat;lon;timestamp;P1;durP1;ratioP1;P2;durP2;ratioP2
76433;SDS011;65265;53.200;6.080;2023-07-13T00:04:01;9.73;;;0.80;;
76433;SDS011;65265;53.200;6.080;2023-07-13T00:08:54;2.83;;;0.32;;
76433;SDS011;65265;53.200;6.080;2023-07-13T00:13:46;7.18;;;0.45;;
76433;SDS011;65265;53.200;6.080;2023-07-13T00:18:37;2.50;;;0.40;;
76433;SDS011;65265;53.200;6.080;2023-07-13T00:23:29;1.42;;;0.65;;
76433;SDS011;65265;53.200;6.080;2023-07-13T00:28:22;2.47;;;0.50;;
76433;SDS011;65265;53.200;6.080;2023-07-13T00:33:13;3.13;;;0.10;;
76433;SDS011;65265;53.200;6.080;2023-07-13T00:38:05;1.95;;;0.15;;
76433;SDS011;65265;53.200;6.080;2023-07-13T00:42:57;2.08;;;0.63;;
76433;SDS011;65265;53.200;6.080;2023-07-13T00:47:50;6.57;;;0.47;;
76433;SDS011;65265;53.200;6.080;2023-07-13T00:52:43;2.90;;;0.82;;
76433;SDS011;65265;53.200;6.080;2023-07-13T00:57:37;3.03;;;0.63;;
76433;SDS011;65265;53.200;6.080;2023-07-13T01:02:28;3.95;;;0.30;;
76433;SDS011;65265;53.200;6.080;2023-07-13T01:07:22;2.17;;;0.40;;
76433;SDS011;65265;53.200;6.080;2023-07-13T01:12:14;4.43;;;0.20;;
76433;SDS011;65265;53.200;6.080;2023-07-13T01:17:05;3.78;;;1.02;;
76433;SDS011;65265;53.200;6.080;2023-07-13T01:21:58;2.78;;;0.80;;
76433;SDS011;65265;53.200;6.080;2023-07-13T01:26:49;3.53;;;0.80;;
76433;SDS011;65265;53.200;6.080;2023-07-13T01:31:41;0.65;;;0.20;;
76433;SDS011;65265;53.200;6.080;2023-07-13T01:36:34;5.65;;;0.70;;
76433;SDS011;65265;53.200;6.080;2023-07-13T01:41:27;2.60;;;0.43;;
76433;SDS011;65265;53.200;6.080;2023-07-13T01:46:19;4.35;;;0.20;;
76433;SDS011;65265;53.200;6.080;2023-07-13T01:51:10;1.45;;;0.15;;
76433;SDS011;65265;53.200;6.080;2023-07-13T01:56:02;2.22;;;0.50;;
76433;SDS011;65265;53.200;6.080;2023-07-13T02:00:55;3.10;;;0.20;;
76433;SDS011;65265;53.200;6.080;2023-07-13T02:05:46;1.02;;;0.40;;
76433;SDS011;65265;53.200;6.080;2023-07-13T02:10:38;2.85;;;0.30;;
76433;SDS011;65265;53.200;6.080;2023-07-13T02:15:29;3.65;;;0.28;;
76433;SDS011;65265;53.200;6.080;2023-07-13T02:20:22;1.15;;;0.22;;
76433;SDS011;65265;53.200;6.080;2023-07-13T02:25:14;1.90;;;0.28;;
76433;SDS011;65265;53.200;6.080;2023-07-13T02:30:06;3.67;;;0.38;;
76433;SDS011;65265;53.200;6.080;2023-07-13T02:34:58;1.38;;;0.20;;
76433;SDS011;65265;53.200;6.080;2023-07-13T02:39:51;1.90;;;0.70;;
76433;SDS011;65265;53.200;6.080;2023-07-13T02:44:43;2.83;;;0.75;;
76433;SDS011;65265;53.200;6.080;2023-07-13T02:49:34;2.10;;;0.22;;
76433;SDS011;65265;53.200;6.080;2023-07-13T02:54:25;4.72;;;0.93;;
76433;SDS011;65265;53.200;6.080;2023-07-13T02:59:18;3.22;;;0.70;;
76433;SDS011;65265;53.200;6.080;2023-07-13T03:04:10;3.05;;;0.43;;
76433;SDS011;65265;53.200;6.080;2023-07-13T03:09:02;5.60;;;1.20;;
76433;SDS011;65265;53.200;6.080;2023-07-13T03:13:54;4.30;;;0.95;;
76433;SDS011;65265;53.200;6.080;2023-07-13T03:18:47;4.28;;;1.00;;
76433;SDS011;65265;53.200;6.080;2023-07-13T03:23:39;4.18;;;0.80;;
76433;SDS011;65265;53.200;6.080;2023-07-13T03:28:30;3.65;;;1.13;;
76433;SDS011;65265;53.200;6.080;2023-07-13T03:33:22;5.22;;;1.42;;
76433;SDS011;65265;53.200;6.080;2023-07-13T03:38:15;5.85;;;1.23;;
76433;SDS011;65265;53.200;6.080;2023-07-13T03:43:07;6.60;;;1.13;;
76433;SDS011;65265;53.200;6.080;2023-07-13T03:47:58;4.43;;;1.00;;
76433;SDS011;65265;53.200;6.080;2023-07-13T03:52:49;6.85;;;1.52;;
76433;SDS011;65265;53.200;6.080;2023-07-13T03:57:42;2.75;;;0.85;;
76433;SDS011;65265;53.200;6.080;2023-07-13T04:02:34;2.80;;;0.65;;
76433;SDS011;65265;53.200;6.080;2023-07-13T04:07:27;2.85;;;1.15;;
76433;SDS011;65265;53.200;6.080;2023-07-13T04:12:18;6.53;;;1.48;;
76433;SDS011;65265;53.200;6.080;2023-07-13T04:17:11;5.53;;;1.33;;
76433;SDS011;65265;53.200;6.080;2023-07-13T04:22:03;4.20;;;0.80;;
76433;SDS011;65265;53.200;6.080;2023-07-13T04:26:54;5.43;;;1.23;;
76433;SDS011;65265;53.200;6.080;2023-07-13T04:31:49;8.75;;;1.67;;
76433;SDS011;65265;53.200;6.080;2023-07-13T04:36:42;6.35;;;1.58;;
76433;SDS011;65265;53.200;6.080;2023-07-13T04:41:33;9.60;;;0.98;;
76433;SDS011;65265;53.200;6.080;2023-07-13T04:46:25;6.22;;;1.30;;
76433;SDS011;65265;53.200;6.080;2023-07-13T04:51:16;2.95;;;1.23;;
76433;SDS011;65265;53.200;6.080;2023-07-13T04:56:09;7.32;;;1.17;;
76433;SDS011;65265;53.200;6.080;2023-07-13T05:01:01;2.85;;;1.42;;
76433;SDS011;65265;53.200;6.080;2023-07-13T05:05:54;8.20;;;1.13;;
76433;SDS011;65265;53.200;6.080;2023-07-13T05:10:47;3.50;;;0.88;;
76433;SDS011;65265;53.200;6.080;2023-07-13T05:15:39;4.03;;;0.80;;
76433;SDS011;65265;53.200;6.080;2023-07-13T05:20:31;7.32;;;1.20;;
76433;SDS011;65265;53.200;6.080;2023-07-13T05:25:22;5.25;;;1.02;;
76433;SDS011;65265;53.200;6.080;2023-07-13T05:30:14;2.00;;;0.98;;
76433;SDS011;65265;53.200;6.080;2023-07-13T05:35:07;9.35;;;0.88;;
76433;SDS011;65265;53.200;6.080;2023-07-13T05:39:59;5.75;;;0.75;;
76433;SDS011;65265;53.200;6.080;2023-07-13T05:44:51;3.70;;;1.48;;
76433;SDS011;65265;53.200;6.080;2023-07-13T05:49:42;6.45;;;0.90;;
76433;SDS011;65265;53.200;6.080;2023-07-13T05:54:35;5.05;;;0.80;;
76433;SDS011;65265;53.200;6.080;2023-07-13T05:59:26;3.50;;;0.68;;
76433;SDS011;65265;53.200;6.080;2023-07-13T06:04:18;4.18;;;1.08;;
76433;SDS011;65265;53.200;6.080;2023-07-13T06:09:10;3.72;;;0.47;;
76433;SDS011;65265;53.200;6.080;2023-07-13T06:14:02;2.90;;;1.30;;
76433;SDS011;65265;53.200;6.080;2023-07-13T06:18:54;4.80;;;0.50;;
76433;SDS011;65265;53.200;6.080;2023-07-13T06:23:46;5.07;;;0.55;;
76433;SDS011;65265;53.200;6.080;2023-07-13T06:28:40;3.03;;;0.47;;
76433;SDS011;65265;53.200;6.080;2023-07-13T06:33:33;2.22;;;0.38;;
76433;SDS011;65265;53.200;6.080;2023-07-13T06:38:25;5.15;;;0.98;;
76433;SDS011;65265;53.200;6.080;2023-07-13T06:43:16;2.05;;;0.52;;
76433;SDS011;65265;53.200;6.080;2023-07-13T06:48:09;4.30;;;0.40;;
76433;SDS011;65265;53.200;6.080;2023-07-13T06:53:02;2.97;;;0.40;;
76433;SDS011;65265;53.200;6.080;2023-07-13T06:57:54;5.10;;;0.60;;
76433;SDS011;65265;53.200;6.080;2023-07-13T07:02:45;2.15;;;0.40;;
76433;SDS011;65265;53.200;6.080;2023-07-13T07:07:37;2.80;;;0.60;;
76433;SDS011;65265;53.200;6.080;2023-07-13T07:12:30;3.80;;;1.13;;
76433;SDS011;65265;53.200;6.080;2023-07-13T07:17:21;5.38;;;0.85;;
76433;SDS011;65265;53.200;6.080;2023-07-13T07:22:12;5.35;;;0.95;;
76433;SDS011;65265;53.200;6.080;2023-07-13T07:27:04;3.22;;;0.75;;
76433;SDS011;65265;53.200;6.080;2023-07-13T07:31:57;4.05;;;0.70;;
76433;SDS011;65265;53.200;6.080;2023-07-13T07:36:49;3.67;;;0.85;;
76433;SDS011;65265;53.200;6.080;2023-07-13T07:41:41;2.03;;;0.40;;
76433;SDS011;65265;53.200;6.080;2023-07-13T07:46:32;2.03;;;0.20;;
76433;SDS011;65265;53.200;6.080;2023-07-13T07:51:25;2.92;;;0.40;;
76433;SDS011;65265;53.200;6.080;2023-07-13T07:56:17;1.20;;;0.40;;
76433;SDS011;65265;53.200;6.080;2023-07-13T08:01:08;3.80;;;0.95;;
76433;SDS011;65265;53.200;6.080;2023-07-13T08:06:00;3.72;;;0.68;;
76433;SDS011;65265;53.200;6.080;2023-07-13T08:10:52;4.95;;;0.82;;
76433;SDS011;65265;53.200;6.080;2023-07-13T08:15:44;3.90;;;0.70;;
76433;SDS011;65265;53.200;6.080;2023-07-13T08:20:37;6.95;;;0.88;;
76433;SDS011;65265;53.200;6.080;2023-07-13T08:25:29;6.30;;;1.00;;
76433;SDS011;65265;53.200;6.080;2023-07-13T08:30:22;2.30;;;0.32;;
76433;SDS011;65265;53.200;6.080;2023-07-13T08:35:14;3.25;;;0.85;;
76433;SDS011;65265;53.200;6.080;2023-07-13T08:40:07;3.55;;;0.70;;
76433;SDS011;65265;53.200;6.080;2023-07-13T08:45:04;3.42;;;0.45;;
76433;SDS011;65265;53.200;6.080;2023-07-13T08:50:08;2.92;;;1.00;;
76433;SDS011;65265;53.200;6.080;2023-07-13T08:55:05;2.70;;;0.20;;
76433;SDS011;65265;53.200;6.080;2023-07-13T09:00:04;2.50;;;0.40;;
76433;SDS011;65265;53.200;6.080;2023-07-13T09:04:58;2.50;;;0.65;;
76433;SDS011;65265;53.200;6.080;2023-07-13T09:09:58;8.43;;;0.75;;
76433;SDS011;65265;53.200;6.080;2023-07-13T09:14:56;3.38;;;0.57;;
76433;SDS011;65265;53.200;6.080;2023-07-13T09:19:53;1.67;;;0.10;;
76433;SDS011;65265;53.200;6.080;2023-07-13T09:24:52;1.58;;;0.20;;
76433;SDS011;65265;53.200;6.080;2023-07-13T09:29:51;1.67;;;0.38;;
76433;SDS011;65265;53.200;6.080;2023-07-13T09:34:51;1.02;;;0.10;;
76433;SDS011;65265;53.200;6.080;2023-07-13T09:39:44;1.50;;;0.30;;
76433;SDS011;65265;53.200;6.080;2023-07-13T09:44:37;1.60;;;0.30;;
76433;SDS011;65265;53.200;6.080;2023-07-13T09:49:32;2.83;;;0.45;;
76433;SDS011;65265;53.200;6.080;2023-07-13T09:54:26;2.20;;;0.32;;
76433;SDS011;65265;53.200;6.080;2023-07-13T09:59:18;1.02;;;0.20;;
76433;SDS011;65265;53.200;6.080;2023-07-13T10:04:11;2.75;;;0.32;;
76433;SDS011;65265;53.200;6.080;2023-07-13T10:09:06;2.30;;;0.28;;
76433;SDS011;65265;53.200;6.080;2023-07-13T10:13:59;1.20;;;0.20;;
76433;SDS011;65265;53.200;6.080;2023-07-13T10:18:53;0.52;;;0.30;;
76433;SDS011;65265;53.200;6.080;2023-07-13T10:23:50;3.03;;;0.17;;
76433;SDS011;65265;53.200;6.080;2023-07-13T10:28:47;1.10;;;0.10;;
76433;SDS011;65265;53.200;6.080;2023-07-13T10:33:45;3.47;;;0.43;;
76433;SDS011;65265;53.200;6.080;2023-07-13T10:38:36;4.30;;;0.30;;
76433;SDS011;65265;53.200;6.080;2023-07-13T10:43:28;2.90;;;0.22;;
76433;SDS011;65265;53.200;6.080;2023-07-13T10:48:28;5.53;;;0.70;;
76433;SDS011;65265;53.200;6.080;2023-07-13T10:53:28;5.05;;;0.50;;
76433;SDS011;65265;53.200;6.080;2023-07-13T10:58:22;3.40;;;0.70;;
76433;SDS011;65265;53.200;6.080;2023-07-13T11:03:16;4.10;;;0.70;;
76433;SDS011;65265;53.200;6.080;2023-07-13T11:08:16;2.20;;;0.20;;
76433;SDS011;65265;53.200;6.080;2023-07-13T11:18:33;4.55;;;0.43;;
76433;SDS011;65265;53.200;6.080;2023-07-13T11:23:30;4.50;;;1.05;;
76433;SDS011;65265;53.200;6.080;2023-07-13T11:28:24;3.67;;;0.50;;
76433;SDS011;65265;53.200;6.080;2023-07-13T11:33:18;3.95;;;0.68;;
76433;SDS011;65265;53.200;6.080;2023-07-13T11:38:14;2.90;;;0.40;;
76433;SDS011;65265;53.200;6.080;2023-07-13T11:43:11;2.53;;;0.73;;
76433;SDS011;65265;53.200;6.080;2023-07-13T11:48:04;4.93;;;1.00;;
76433;SDS011;65265;53.200;6.080;2023-07-13T11:52:57;2.83;;;0.52;;
76433;SDS011;65265;53.200;6.080;2023-07-13T11:57:51;3.17;;;0.10;;
76433;SDS011;65265;53.200;6.080;2023-07-13T12:02:51;2.17;;;0.43;;
76433;SDS011;65265;53.200;6.080;2023-07-13T12:07:45;1.92;;;0.50;;
76433;SDS011;65265;53.200;6.080;2023-07-13T12:12:37;2.22;;;0.32;;
76433;SDS011;65265;53.200;6.080;2023-07-13T12:17:36;3.10;;;0.65;;
76433;SDS011;65265;53.200;6.080;2023-07-13T12:22:29;3.97;;;0.40;;
76433;SDS011;65265;53.200;6.080;2023-07-13T12:27:21;2.40;;;0.25;;
76433;SDS011;65265;53.200;6.080;2023-07-13T12:32:15;2.55;;;0.73;;
76433;SDS011;65265;53.200;6.080;2023-07-13T12:37:08;4.03;;;0.55;;
76433;SDS011;65265;53.200;6.080;2023-07-13T12:42:13;3.20;;;0.30;;
76433;SDS011;65265;53.200;6.080;2023-07-13T12:47:11;3.55;;;0.20;;
76433;SDS011;65265;53.200;6.080;2023-07-13T12:52:10;1.70;;;0.20;;
76433;SDS011;65265;53.200;6.080;2023-07-13T12:57:05;4.68;;;0.65;;
76433;SDS011;65265;53.200;6.080;2023-07-13T13:02:00;5.85;;;1.10;;
76433;SDS011;65265;53.200;6.080;2023-07-13T13:07:00;2.70;;;0.55;;
76433;SDS011;65265;53.200;6.080;2023-07-13T13:11:52;4.97;;;0.85;;
76433;SDS011;65265;53.200;6.080;2023-07-13T13:16:45;5.07;;;1.02;;
76433;SDS011;65265;53.200;6.080;2023-07-13T13:21:42;4.38;;;0.80;;
76433;SDS011;65265;53.200;6.080;2023-07-13T13:26:35;7.60;;;0.50;;
76433;SDS011;65265;53.200;6.080;2023-07-13T13:31:26;6.07;;;1.00;;
76433;SDS011;65265;53.200;6.080;2023-07-13T13:36:19;4.63;;;1.02;;
76433;SDS011;65265;53.200;6.080;2023-07-13T13:41:15;4.28;;;0.63;;
76433;SDS011;65265;53.200;6.080;2023-07-13T13:46:11;2.00;;;0.50;;
76433;SDS011;65265;53.200;6.080;2023-07-13T13:51:11;4.43;;;0.60;;
76433;SDS011;65265;53.200;6.080;2023-07-13T13:56:05;4.85;;;0.73;;
76433;SDS011;65265;53.200;6.080;2023-07-13T14:00:58;3.45;;;0.75;;
76433;SDS011;65265;53.200;6.080;2023-07-13T14:05:50;3.88;;;0.60;;
76433;SDS011;65265;53.200;6.080;2023-07-13T14:10:41;4.32;;;0.50;;
76433;SDS011;65265;53.200;6.080;2023-07-13T14:15:33;6.25;;;0.65;;
76433;SDS011;65265;53.200;6.080;2023-07-13T14:25:18;5.97;;;0.85;;
76433;SDS011;65265;53.200;6.080;2023-07-13T14:30:14;5.38;;;1.08;;
76433;SDS011;65265;53.200;6.080;2023-07-13T14:35:08;3.63;;;0.93;;
76433;SDS011;65265;53.200;6.080;2023-07-13T14:40:04;3.38;;;0.85;;
76433;SDS011;65265;53.200;6.080;2023-07-13T14:45:03;4.68;;;0.60;;
76433;SDS011;65265;53.200;6.080;2023-07-13T14:49:55;4.35;;;0.55;;
76433;SDS011;65265;53.200;6.080;2023-07-13T14:54:47;2.85;;;0.93;;
76433;SDS011;65265;53.200;6.080;2023-07-13T14:59:40;5.70;;;0.82;;
76433;SDS011;65265;53.200;6.080;2023-07-13T15:04:34;5.53;;;1.00;;
76433;SDS011;65265;53.200;6.080;2023-07-13T15:09:25;4.88;;;1.10;;
76433;SDS011;65265;53.200;6.080;2023-07-13T15:14:19;6.53;;;1.40;;
76433;SDS011;65265;53.200;6.080;2023-07-13T15:19:12;5.40;;;0.55;;
76433;SDS011;65265;53.200;6.080;2023-07-13T15:24:04;3.97;;;0.50;;
76433;SDS011;65265;53.200;6.080;2023-07-13T15:28:58;4.10;;;0.63;;
76433;SDS011;65265;53.200;6.080;2023-07-13T15:33:49;6.22;;;1.02;;
76433;SDS011;65265;53.200;6.080;2023-07-13T15:38:43;4.45;;;1.15;;
76433;SDS011;65265;53.200;6.080;2023-07-13T15:43:36;5.57;;;0.88;;
76433;SDS011;65265;53.200;6.080;2023-07-13T15:48:28;3.65;;;0.70;;
76433;SDS011;65265;53.200;6.080;2023-07-13T15:53:22;2.47;;;1.00;;
76433;SDS011;65265;53.200;6.080;2023-07-13T15:58:17;4.57;;;0.63;;
76433;SDS011;65265;53.200;6.080;2023-07-13T16:03:10;5.72;;;1.00;;
76433;SDS011;65265;53.200;6.080;2023-07-13T16:08:02;3.20;;;0.90;;
76433;SDS011;65265;53.200;6.080;2023-07-13T16:12:56;4.50;;;1.17;;
76433;SDS011;65265;53.200;6.080;2023-07-13T16:17:50;4.90;;;0.73;;
76433;SDS011;65265;53.200;6.080;2023-07-13T16:22:44;5.18;;;0.55;;
76433;SDS011;65265;53.200;6.080;2023-07-13T16:27:37;6.13;;;1.13;;
76433;SDS011;65265;53.200;6.080;2023-07-13T16:32:28;6.00;;;0.77;;
76433;SDS011;65265;53.200;6.080;2023-07-13T16:37:22;3.70;;;1.33;;
76433;SDS011;65265;53.200;6.080;2023-07-13T16:42:18;6.90;;;1.10;;
76433;SDS011;65265;53.200;6.080;2023-07-13T16:47:11;5.38;;;0.75;;
76433;SDS011;65265;53.200;6.080;2023-07-13T16:52:05;4.70;;;1.85;;
76433;SDS011;65265;53.200;6.080;2023-07-13T16:56:59;3.42;;;0.80;;
76433;SDS011;65265;53.200;6.080;2023-07-13T17:01:53;6.32;;;1.23;;
76433;SDS011;65265;53.200;6.080;2023-07-13T17:06:44;6.13;;;1.30;;
76433;SDS011;65265;53.200;6.080;2023-07-13T17:11:36;4.40;;;1.77;;
76433;SDS011;65265;53.200;6.080;2023-07-13T17:16:31;6.55;;;1.10;;
76433;SDS011;65265;53.200;6.080;2023-07-13T17:21:22;7.70;;;1.23;;
76433;SDS011;65265;53.200;6.080;2023-07-13T17:26:14;7.28;;;1.00;;
76433;SDS011;65265;53.200;6.080;2023-07-13T17:31:05;3.83;;;0.55;;
76433;SDS011;65265;53.200;6.080;2023-07-13T17:36:00;2.67;;;0.60;;
76433;SDS011;65265;53.200;6.080;2023-07-13T17:40:52;5.75;;;1.52;;
76433;SDS011;65265;53.200;6.080;2023-07-13T17:45:44;6.93;;;1.00;;
76433;SDS011;65265;53.200;6.080;2023-07-13T17:50:35;5.97;;;1.13;;
76433;SDS011;65265;53.200;6.080;2023-07-13T17:55:29;8.88;;;1.48;;
76433;SDS011;65265;53.200;6.080;2023-07-13T18:00:21;5.93;;;1.80;;
76433;SDS011;65265;53.200;6.080;2023-07-13T18:05:21;2.72;;;0.70;;
76433;SDS011;65265;53.200;6.080;2023-07-13T18:10:14;3.60;;;1.00;;
76433;SDS011;65265;53.200;6.080;2023-07-13T18:15:09;5.20;;;0.90;;
76433;SDS011;65265;53.200;6.080;2023-07-13T18:20:01;6.82;;;1.30;;
76433;SDS011;65265;53.200;6.080;2023-07-13T18:24:57;4.22;;;1.63;;
76433;SDS011;65265;53.200;6.080;2023-07-13T18:29:51;6.15;;;1.58;;
76433;SDS011;65265;53.200;6.080;2023-07-13T18:34:45;5.97;;;1.23;;
76433;SDS011;65265;53.200;6.080;2023-07-13T18:39:37;3.33;;;1.02;;
76433;SDS011;65265;53.200;6.080;2023-07-13T18:44:28;4.13;;;0.85;;
76433;SDS011;65265;53.200;6.080;2023-07-13T18:49:20;5.82;;;1.42;;
76433;SDS011;65265;53.200;6.080;2023-07-13T18:54:13;7.25;;;1.70;;
76433;SDS011;65265;53.200;6.080;2023-07-13T18:59:05;4.15;;;0.93;;
76433;SDS011;65265;53.200;6.080;2023-07-13T19:03:57;4.60;;;1.40;;
76433;SDS011;65265;53.200;6.080;2023-07-13T19:08:48;4.78;;;1.38;;
76433;SDS011;65265;53.200;6.080;2023-07-13T19:13:42;5.85;;;0.98;;
76433;SDS011;65265;53.200;6.080;2023-07-13T19:18:34;4.22;;;1.13;;
76433;SDS011;65265;53.200;6.080;2023-07-13T19:23:27;2.08;;;0.95;;
76433;SDS011;65265;53.200;6.080;2023-07-13T19:28:27;4.28;;;1.13;;
76433;SDS011;65265;53.200;6.080;2023-07-13T19:33:27;3.08;;;1.15;;
76433;SDS011;65265;53.200;6.080;2023-07-13T19:38:20;5.32;;;1.02;;
76433;SDS011;65265;53.200;6.080;2023-07-13T19:43:14;4.03;;;0.90;;
76433;SDS011;65265;53.200;6.080;2023-07-13T19:48:06;5.90;;;1.35;;
76433;SDS011;65265;53.200;6.080;2023-07-13T19:57:53;3.80;;;1.25;;
76433;SDS011;65265;53.200;6.080;2023-07-13T20:02:45;6.47;;;1.73;;
76433;SDS011;65265;53.200;6.080;2023-07-13T20:07:36;5.60;;;2.17;;
76433;SDS011;65265;53.200;6.080;2023-07-13T20:12:29;3.55;;;1.50;;
76433;SDS011;65265;53.200;6.080;2023-07-13T20:17:24;2.88;;;1.58;;
76433;SDS011;65265;53.200;6.080;2023-07-13T20:22:21;4.30;;;1.27;;
76433;SDS011;65265;53.200;6.080;2023-07-13T20:27:12;5.60;;;1.70;;
76433;SDS011;65265;53.200;6.080;2023-07-13T20:32:07;5.25;;;2.42;;
76433;SDS011;65265;53.200;6.080;2023-07-13T20:37:00;3.17;;;1.60;;
76433;SDS011;65265;53.200;6.080;2023-07-13T20:41:52;8.80;;;2.58;;
76433;SDS011;65265;53.200;6.080;2023-07-13T20:46:43;4.22;;;2.15;;
76433;SDS011;65265;53.200;6.080;2023-07-13T20:51:36;6.93;;;2.97;;
76433;SDS011;65265;53.200;6.080;2023-07-13T20:56:28;4.72;;;1.40;;
76433;SDS011;65265;53.200;6.080;2023-07-13T21:01:28;4.93;;;1.98;;
76433;SDS011;65265;53.200;6.080;2023-07-13T21:06:21;5.65;;;2.45;;
76433;SDS011;65265;53.200;6.080;2023-07-13T21:11:14;4.43;;;2.60;;
76433;SDS011;65265;53.200;6.080;2023-07-13T21:16:13;4.05;;;1.35;;
76433;SDS011;65265;53.200;6.080;2023-07-13T21:21:09;6.25;;;2.00;;
76433;SDS011;65265;53.200;6.080;2023-07-13T21:26:03;4.20;;;2.28;;
76433;SDS011;65265;53.200;6.080;2023-07-13T21:31:03;3.70;;;1.65;;
76433;SDS011;65265;53.200;6.080;2023-07-13T21:35:57;6.13;;;2.70;;
76433;SDS011;65265;53.200;6.080;2023-07-13T21:40:49;5.00;;;2.97;;
76433;SDS011;65265;53.200;6.080;2023-07-13T21:45:43;4.38;;;2.28;;
76433;SDS011;65265;53.200;6.080;2023-07-13T21:50:38;5.22;;;2.47;;
76433;SDS011;65265;53.200;6.080;2023-07-13T21:55:30;5.72;;;3.10;;
76433;SDS011;65265;53.200;6.080;2023-07-13T22:00:23;4.45;;;3.22;;
76433;SDS011;65265;53.200;6.080;2023-07-13T22:05:16;5.95;;;2.75;;
76433;SDS011;65265;53.200;6.080;2023-07-13T22:10:17;5.40;;;2.65;;
76433;SDS011;65265;53.200;6.080;2023-07-13T22:15:11;7.97;;;3.42;;
76433;SDS011;65265;53.200;6.080;2023-07-13T22:20:03;4.50;;;2.40;;
76433;SDS011;65265;53.200;6.080;2023-07-13T22:24:58;4.75;;;2.47;;
76433;SDS011;65265;53.200;6.080;2023-07-13T22:29:51;6.82;;;3.60;;
76433;SDS011;65265;53.200;6.080;2023-07-13T22:34:42;5.22;;;2.97;;
76433;SDS011;65265;53.200;6.080;2023-07-13T22:39:33;6.03;;;2.75;;
76433;SDS011;65265;53.200;6.080;2023-07-13T22:44:25;8.63;;;4.32;;
76433;SDS011;65265;53.200;6.080;2023-07-13T22:49:19;7.57;;;4.70;;
76433;SDS011;65265;53.200;6.080;2023-07-13T22:54:14;8.30;;;4.28;;
76433;SDS011;65265;53.200;6.080;2023-07-13T22:59:06;6.72;;;4.28;;
76433;SDS011;65265;53.200;6.080;2023-07-13T23:03:58;5.20;;;3.95;;
76433;SDS011;65265;53.200;6.080;2023-07-13T23:08:53;6.65;;;3.40;;
76433;SDS011;65265;53.200;6.080;2023-07-13T23:13:44;6.07;;;3.05;;
76433;SDS011;65265;53.200;6.080;2023-07-13T23:18:36;6.43;;;3.95;;
76433;SDS011;65265;53.200;6.080;2023-07-13T23:23:28;4.90;;;2.97;;
76433;SDS011;65265;53.200;6.080;2023-07-13T23:28:21;6.72;;;3.90;;
76433;SDS011;65265;53.200;6.080;2023-07-13T23:33:15;5.15;;;3.85;;
76433;SDS011;65265;53.200;6.080;2023-07-13T23:43:03;6.22;;;4.18;;
76433;SDS011;65265;53.200;6.080;2023-07-13T23:47:56;5.53;;;3.72;;
76433;SDS011;65265;53.200;6.080;2023-07-13T23:52:50;7.63;;;4.50;;
76433;SDS011;65265;53.200;6.080;2023-07-13T23:57:43;5.13;;;4.47;;
